メインページ
METAR-TAF:

METAR-TAF

空港 :

アルマトイ, カザフスタン

アルマトイ国際空港

緯度: 43-14N, 経度: 076-56E, 海抜: 847m

現時点の気象観測

当レポートは38分前の12:30(UTC)に作成
の風 4kt、から南/南西の間で変化する
気温 2°C
湿度 64%
気圧 1017 hPa
視程: 1100m
高度10000ftの雲はほとんどない
高度20000ftの千切れ雲あり

METAR: UAAA 241230Z 19002MPS 100V200 1100 R05L/P2000N FU FEW100 BKN200 02/M04 Q1017 R05L/CLRD65 NOSIG

時間: 19:08 (13:08 UTC)

予報

当レポートは2時間8分前の11:00(UTC)に作成
予報は24日の 12時(UTC)から 25日の 12時(UTC)まで有効
南/南東の風 10kt
視程: 3000m
高度5000ftの雲は散在している
高度10000ftの千切れ雲あり
靄, 煙
24日の 12時(UTC)から 24日の 22時(UTC)まで一時的に
視程: 0600m
24日の 22時(UTC)から 25日の 03時(UTC)まで一時的に
視程: 1200m
25日の 04時(UTC)から 25日の 05時(UTC)まで徐々に
北東の風 10kt
高度5000ftの雲は散在している, 積乱雲.
高度10000ftの千切れ雲あり

TAF: UAAA 241100Z 2412/2512 16005MPS 3000 BR FU SCT050 BKN100 TX11/2509Z TNM06/2501Z TEMPO 2412/2422 0600 TEMPO 2422/2503 1200 BECMG 2504/2505 04005MPS SCT050CB BKN100

4,000以上の空港の気象観測と天気予報(METAR報とTAF報)

利用可能な観測所は地図上に黄色い丸と赤い丸で示す。

丸の上にカーソルを重ねると観測所名を参照できる。

次にクリックすると気象観測と天気予報を参照できる。

マップの切り替え:黒色「×」印の緑ボタンをクリックして拡大、「-」印の緑ボタンをクリックして縮小、緑色の三角印をクリックして隣りの地図に切り替え


METAR-TAF: